Time;durP1;ratioP1;P1;durP2;ratioP2;P2;SDS_P1;SDS_P2;PMS_P1;PMS_P2;Temp;Humidity;BMP_temperature;BMP_pressure;BME280_temperature;BME280_humidity;BME280_pressure;Samples;Min_cycle;Max_cycle;Signal;HPM_P1;HPM_P2
2020/12/18 00:00:17;;;;;;;138.95;47.90;;;154.50;2073.60;;;;;;5053689;28;20029;-65
2020/12/18 00:02:43;;;;;;;147.95;48.13;;;154.50;2073.60;;;;;;5053360;28;20036;-65
2020/12/18 00:05:09;;;;;;;135.48;44.28;;;154.40;2073.60;;;;;;5053150;28;20035;-65
2020/12/18 00:07:34;;;;;;;140.27;47.90;;;154.50;2073.60;;;;;;5052889;28;20386;-65
2020/12/18 00:10:00;;;;;;;125.93;45.55;;;154.40;2073.60;;;;;;5053534;28;20470;-65
2020/12/18 00:12:26;;;;;;;129.35;43.95;;;154.50;2073.60;;;;;;5053372;28;20029;-65
2020/12/18 00:14:51;;;;;;;132.32;45.80;;;154.50;2073.60;;;;;;5053503;28;20029;-64
2020/12/18 00:17:17;;;;;;;132.20;44.30;;;154.50;2073.60;;;;;;5035547;28;20462;-65
2020/12/18 00:19:43;;;;;;;119.22;42.90;;;154.50;2073.60;;;;;;5053290;28;20082;-65
2020/12/18 00:22:08;;;;;;;120.53;44.92;;;154.40;2073.60;;;;;;5053478;28;20021;-65
2020/12/18 00:24:34;;;;;;;110.47;40.42;;;154.40;2073.60;;;;;;5053161;28;20553;-65
2020/12/18 00:27:01;;;;;;;101.22;41.88;;;154.40;2048.00;;;;;;5039008;28;20037;-65
2020/12/18 00:29:27;;;;;;;106.72;41.10;;;154.40;2073.60;;;;;;5057142;28;20024;-65
2020/12/18 00:31:52;;;;;;;103.03;41.67;;;154.40;2073.60;;;;;;5057403;28;20037;-65
2020/12/18 00:34:18;;;;;;;106.45;40.28;;;154.40;2073.60;;;;;;5057213;28;20505;-65
2020/12/18 00:36:50;;;;;;;110.10;42.28;;;154.40;2073.60;;;;;;5057008;28;20497;-65
2020/12/18 00:39:16;;;;;;;101.47;41.72;;;154.40;2073.60;;;;;;5056823;28;20551;-64
2020/12/18 00:41:42;;;;;;;107.00;42.70;;;154.40;2073.60;;;;;;5056531;28;20135;-64
2020/12/18 00:44:08;;;;;;;100.53;40.30;;;154.40;2073.60;;;;;;5057078;28;20102;-64
2020/12/18 00:46:34;;;;;;;100.97;38.55;;;154.40;2073.60;;;;;;5056916;28;20040;-65
2020/12/18 00:49:00;;;;;;;92.85;37.17;;;154.40;2073.60;;;;;;5056825;28;20025;-64
2020/12/18 00:51:25;;;;;;;91.03;36.88;;;154.50;2048.00;;;;;;5056720;28;20024;-64
2020/12/18 00:53:51;;;;;;;80.70;33.15;;;154.40;2048.00;;;;;;5057109;28;20029;-64
2020/12/18 00:56:17;;;;;;;82.65;34.22;;;154.40;2048.00;;;;;;5056719;28;20028;-64
2020/12/18 00:58:44;;;;;;;79.88;32.72;;;154.40;2073.60;;;;;;5056667;28;20037;-64
2020/12/18 01:01:10;;;;;;;88.10;34.70;;;154.40;2073.60;;;;;;5056931;28;20023;-64
2020/12/18 01:03:36;;;;;;;87.88;34.00;;;154.50;2073.60;;;;;;5056587;28;20060;-64
2020/12/18 01:06:07;;;;;;;86.50;35.15;;;154.50;2073.60;;;;;;5056616;28;20044;-64
2020/12/18 01:08:32;;;;;;;87.57;34.53;;;154.50;2073.60;;;;;;5056826;28;20037;-65
2020/12/18 01:11:02;;;;;;;88.90;33.67;;;154.50;2073.60;;;;;;5056452;28;20133;-65
2020/12/18 01:13:28;;;;;;;79.00;33.40;;;154.50;2073.60;;;;;;5056307;28;20025;-64
2020/12/18 01:15:54;;;;;;;93.32;35.08;;;154.50;2073.60;;;;;;5056448;28;20108;-64
2020/12/18 01:18:20;;;;;;;85.13;33.55;;;154.50;2048.00;;;;;;5055767;28;20119;-64
2020/12/18 01:20:45;;;;;;;80.80;32.83;;;154.50;2048.00;;;;;;5056155;28;20025;-64
2020/12/18 01:23:11;;;;;;;86.15;33.08;;;154.50;2073.60;;;;;;5056344;28;20108;-64
2020/12/18 01:25:37;;;;;;;77.60;32.70;;;154.50;2073.60;;;;;;5055978;28;20352;-64
2020/12/18 01:28:02;;;;;;;81.85;33.03;;;179.20;2048.00;;;;;;5055944;28;20029;-64
2020/12/18 01:30:28;;;;;;;76.43;31.85;;;179.20;2048.00;;;;;;5056168;28;20028;-66
2020/12/18 01:32:54;;;;;;;80.40;32.50;;;179.20;2073.60;;;;;;5055973;28;20040;-66
2020/12/18 01:35:19;;;;;;;71.47;30.35;;;179.20;2048.00;;;;;;5056023;28;20021;-64
2020/12/18 01:37:45;;;;;;;76.88;31.25;;;179.20;2073.60;;;;;;5054440;28;20029;-64
2020/12/18 01:40:11;;;;;;;77.53;31.80;;;179.20;2073.60;;;;;;5055745;28;20379;-64
2020/12/18 01:42:36;;;;;;;82.78;33.70;;;179.20;2073.60;;;;;;5055805;28;20044;-64
2020/12/18 01:45:03;;;;;;;81.82;32.28;;;179.20;2048.00;;;;;;5055913;28;20498;-64
2020/12/18 01:47:30;;;;;;;74.55;31.75;;;179.30;2048.00;;;;;;5055900;28;20383;-64
2020/12/18 01:49:56;;;;;;;79.07;32.58;;;179.30;2048.00;;;;;;5055747;28;20025;-64
2020/12/18 01:52:25;;;;;;;87.90;33.50;;;179.30;2048.00;;;;;;5055603;28;20033;-64
2020/12/18 01:54:57;;;;;;;87.40;32.70;;;179.30;2022.40;;;;;;5055526;28;20032;-64
2020/12/18 01:57:24;;;;;;;94.40;35.65;;;179.30;2048.00;;;;;;5055483;28;20036;-64
2020/12/18 01:59:51;;;;;;;97.82;35.78;;;179.20;2048.00;;;;;;5037490;28;20426;-64
2020/12/18 02:02:17;;;;;;;87.55;35.45;;;179.30;2048.00;;;;;;5037182;28;20033;-64
2020/12/18 02:04:44;;;;;;;93.22;35.97;;;179.20;2048.00;;;;;;5055538;28;20091;-65
2020/12/18 02:07:11;;;;;;;106.40;38.22;;;179.20;2073.60;;;;;;5055371;28;20020;-65
2020/12/18 02:09:38;;;;;;;97.63;37.30;;;154.50;2073.60;;;;;;5055205;28;20061;-65
2020/12/18 02:12:04;;;;;;;104.85;37.92;;;179.20;2048.00;;;;;;5055418;28;20421;-65
2020/12/18 02:14:30;;;;;;;98.00;35.95;;;154.50;2048.00;;;;;;5055452;28;20399;-65
2020/12/18 02:16:56;;;;;;;90.32;34.53;;;154.50;2048.00;;;;;;5055120;28;20093;-65
2020/12/18 02:19:26;;;;;;;96.32;36.45;;;154.50;2048.00;;;;;;5054935;28;20040;-65
2020/12/18 02:21:52;;;;;;;97.35;35.88;;;154.50;2073.60;;;;;;5055280;28;20045;-64
2020/12/18 02:24:25;;;;;;;97.18;36.40;;;154.50;2073.60;;;;;;5054927;28;20052;-65
2020/12/18 02:26:52;;;;;;;92.10;36.28;;;154.50;2073.60;;;;;;5055076;28;20364;-65
2020/12/18 02:29:18;;;;;;;100.35;37.42;;;154.50;2073.60;;;;;;5055051;28;20466;-64
2020/12/18 02:31:44;;;;;;;92.78;37.08;;;154.50;2073.60;;;;;;5054917;28;20032;-64
2020/12/18 02:34:09;;;;;;;93.32;36.05;;;154.50;2073.60;;;;;;5054959;28;20040;-64
2020/12/18 02:36:35;;;;;;;103.45;37.28;;;154.50;2073.60;;;;;;5054543;28;20430;-65
2020/12/18 02:39:00;;;;;;;104.68;38.40;;;154.50;2073.60;;;;;;5054547;28;20063;-65
2020/12/18 02:41:26;;;;;;;108.80;36.83;;;154.50;2073.60;;;;;;5054132;28;20045;-65
2020/12/18 02:43:52;;;;;;;103.78;38.08;;;154.50;2073.60;;;;;;5054937;28;20020;-65
2020/12/18 02:46:18;;;;;;;107.28;38.40;;;154.50;2073.60;;;;;;5055042;28;20052;-65
2020/12/18 02:48:45;;;;;;;112.60;40.08;;;154.50;2099.20;;;;;;5054013;28;20063;-65
2020/12/18 02:51:11;;;;;;;123.03;39.53;;;154.50;2099.20;;;;;;5054371;28;20025;-66
2020/12/18 02:53:36;;;;;;;118.68;41.13;;;154.50;2099.20;;;;;;5054298;28;20108;-65
2020/12/18 02:56:02;;;;;;;126.60;41.25;;;154.50;2099.20;;;;;;5054524;28;20074;-65
2020/12/18 02:58:28;;;;;;;124.75;40.55;;;154.40;2099.20;;;;;;5054394;28;20112;-65
2020/12/18 03:00:53;;;;;;;126.90;42.38;;;154.40;2099.20;;;;;;5054608;28;20459;-65
2020/12/18 03:03:19;;;;;;;125.05;40.97;;;154.50;2099.20;;;;;;5054408;28;20087;-66
2020/12/18 03:05:45;;;;;;;123.32;41.45;;;154.40;2099.20;;;;;;5054411;28;20052;-66
2020/12/18 03:08:10;;;;;;;124.47;41.90;;;154.30;2124.80;;;;;;5054382;28;20025;-65
2020/12/18 03:10:36;;;;;;;131.70;42.47;;;154.30;2124.80;;;;;;5053924;28;20021;-64
2020/12/18 03:13:02;;;;;;;130.38;39.97;;;154.30;2124.80;;;;;;5054029;28;20106;-64
2020/12/18 03:15:27;;;;;;;123.22;42.10;;;154.30;2124.80;;;;;;5054035;28;20025;-64
2020/12/18 03:17:53;;;;;;;123.80;39.78;;;154.40;2099.20;;;;;;5053892;28;20029;-63
2020/12/18 03:20:19;;;;;;;123.50;41.47;;;154.40;2099.20;;;;;;5035967;28;20048;-64
2020/12/18 03:22:45;;;;;;;125.65;40.22;;;154.40;2099.20;;;;;;5036015;28;20429;-64
2020/12/18 03:25:11;;;;;;;126.63;38.15;;;154.30;2124.80;;;;;;5053411;28;20474;-65
2020/12/18 03:27:36;;;;;;;130.73;40.17;;;154.30;2124.80;;;;;;5053945;28;20025;-64
2020/12/18 03:30:03;;;;;;;119.55;39.25;;;154.20;2124.80;;;;;;5053880;28;20020;-65
2020/12/18 03:32:29;;;;;;;108.38;36.95;;;154.20;2150.40;;;;;;5053936;28;20021;-65
2020/12/18 03:34:55;;;;;;;118.55;39.47;;;154.30;2150.40;;;;;;5053278;28;20230;-65
2020/12/18 03:37:20;;;;;;;113.68;38.42;;;154.30;2124.80;;;;;;5035905;28;20022;-65
2020/12/18 03:39:46;;;;;;;122.88;39.63;;;154.40;2099.20;;;;;;5035768;28;20036;-65
2020/12/18 03:42:12;;;;;;;138.18;41.20;;;154.30;2124.80;;;;;;5053522;28;20048;-64
2020/12/18 03:44:37;;;;;;;146.20;42.65;;;154.20;2150.40;;;;;;5053532;28;20360;-64
2020/12/18 03:47:03;;;;;;;121.40;40.28;;;154.30;2150.40;;;;;;5053617;28;20022;-65
2020/12/18 03:49:29;;;;;;;122.03;37.10;;;154.30;2124.80;;;;;;5054059;28;20021;-64
2020/12/18 03:51:54;;;;;;;123.18;38.60;;;154.20;2150.40;;;;;;5035776;28;20036;-64
2020/12/18 03:54:20;;;;;;;124.88;39.17;;;154.20;2150.40;;;;;;5053821;28;20375;-64
2020/12/18 03:56:46;;;;;;;125.80;39.15;;;154.30;2150.40;;;;;;5053337;28;20017;-64
2020/12/18 03:59:11;;;;;;;128.95;38.95;;;154.30;2124.80;;;;;;5053720;28;20044;-64
2020/12/18 04:01:37;;;;;;;128.50;38.78;;;154.30;2124.80;;;;;;5056636;28;20467;-65
2020/12/18 04:04:03;;;;;;;129.00;38.65;;;154.30;2124.80;;;;;;5057782;28;20052;-65
2020/12/18 04:06:29;;;;;;;127.78;39.85;;;154.40;2124.80;;;;;;5057206;28;20029;-65
2020/12/18 04:08:55;;;;;;;124.03;39.33;;;154.40;2124.80;;;;;;5057437;28;20083;-65
2020/12/18 04:11:20;;;;;;;111.72;36.78;;;154.40;2124.80;;;;;;5039643;28;20024;-65
2020/12/18 04:13:46;;;;;;;110.80;38.00;;;154.40;2124.80;;;;;;5056814;28;20108;-65
2020/12/18 04:16:12;;;;;;;100.25;35.58;;;154.40;2124.80;;;;;;5057388;28;20025;-65
2020/12/18 04:18:37;;;;;;;99.90;34.50;;;154.20;2150.40;;;;;;5057353;28;20501;-65
2020/12/18 04:21:03;;;;;;;93.20;34.03;;;154.20;2150.40;;;;;;5056731;28;20068;-65
2020/12/18 04:23:28;;;;;;;89.78;35.63;;;154.20;2150.40;;;;;;5057447;28;20025;-65
2020/12/18 04:25:54;;;;;;;99.13;39.22;;;154.20;2150.40;;;;;;5057611;28;20025;-65
2020/12/18 04:28:20;;;;;;;104.25;40.67;;;154.30;2124.80;;;;;;5057376;28;20033;-65
2020/12/18 04:30:46;;;;;;;110.20;42.38;;;154.30;2150.40;;;;;;5057287;28;20029;-64
2020/12/18 04:33:12;;;;;;;117.45;43.42;;;154.40;2124.80;;;;;;5057158;28;20462;-65
2020/12/18 04:35:38;;;;;;;118.05;43.95;;;154.40;2124.80;;;;;;5057098;28;20032;-65
2020/12/18 04:38:03;;;;;;;107.70;39.22;;;154.40;2124.80;;;;;;5056796;28;20112;-65
2020/12/18 04:40:32;;;;;;;98.75;36.55;;;154.40;2124.80;;;;;;5056885;28;20132;-64
2020/12/18 04:42:58;;;;;;;89.60;34.90;;;154.40;2124.80;;;;;;5039036;28;20024;-64
2020/12/18 04:45:24;;;;;;;91.63;33.55;;;154.40;2124.80;;;;;;5056831;28;20104;-64
2020/12/18 04:47:54;;;;;;;84.40;33.53;;;154.40;2124.80;;;;;;5056854;28;20379;-64
2020/12/18 04:50:20;;;;;;;77.13;30.50;;;154.40;2124.80;;;;;;5056934;28;20034;-64
2020/12/18 04:52:46;;;;;;;80.25;30.73;;;154.40;2124.80;;;;;;5056849;28;20033;-64
2020/12/18 04:55:17;;;;;;;87.43;33.35;;;154.40;2124.80;;;;;;5056825;28;20625;-65
2020/12/18 04:57:46;;;;;;;82.05;32.60;;;154.50;2124.80;;;;;;5056709;28;20041;-64
2020/12/18 05:00:12;;;;;;;77.78;30.45;;;154.50;2124.80;;;;;;5056813;28;20033;-64
2020/12/18 05:02:39;;;;;;;76.28;31.17;;;154.50;2124.80;;;;;;5056883;28;20086;-64
2020/12/18 05:05:09;;;;;;;84.45;30.42;;;154.50;2099.20;;;;;;5056650;28;20435;-65
2020/12/18 05:07:35;;;;;;;79.32;30.88;;;154.50;2099.20;;;;;;5056536;28;20029;-65
2020/12/18 05:10:02;;;;;;;81.25;31.08;;;154.40;2124.80;;;;;;5056271;28;20378;-65
2020/12/18 05:12:28;;;;;;;78.47;31.83;;;154.40;2124.80;;;;;;5056406;28;20036;-65
2020/12/18 05:14:55;;;;;;;81.53;30.60;;;154.50;2124.80;;;;;;5056495;28;20033;-65
2020/12/18 05:17:21;;;;;;;79.55;29.45;;;154.50;2124.80;;;;;;5056864;28;20024;-65
2020/12/18 05:19:46;;;;;;;84.68;32.60;;;154.40;2124.80;;;;;;5056170;28;20029;-65
2020/12/18 05:22:13;;;;;;;86.32;32.17;;;154.40;2124.80;;;;;;5055783;28;20028;-64
2020/12/18 05:24:40;;;;;;;80.32;31.35;;;154.40;2124.80;;;;;;5056327;28;20035;-64
2020/12/18 05:27:07;;;;;;;77.32;30.80;;;154.50;2124.80;;;;;;5056124;28;20070;-64
2020/12/18 05:29:36;;;;;;;89.53;31.38;;;154.50;2124.80;;;;;;5056133;28;20029;-65
2020/12/18 05:32:02;;;;;;;79.28;30.05;;;154.50;2124.80;;;;;;5055789;28;20033;-65
2020/12/18 05:34:29;;;;;;;83.72;30.15;;;154.40;2124.80;;;;;;5056114;28;20025;-64
2020/12/18 05:36:55;;;;;;;82.13;30.10;;;154.50;2124.80;;;;;;5055959;28;20104;-66
2020/12/18 05:39:22;;;;;;;84.18;30.77;;;154.50;2124.80;;;;;;5055855;28;20082;-65
2020/12/18 05:41:58;;;;;;;77.80;30.83;;;154.40;2124.80;;;;;;5055608;28;20053;-65
2020/12/18 05:44:26;;;;;;;82.40;30.98;;;154.50;2124.80;;;;;;5055978;28;20060;-65
2020/12/18 05:46:52;;;;;;;77.28;29.30;;;154.50;2124.80;;;;;;5037578;28;20487;-65
2020/12/18 05:49:31;;;;;;;78.20;32.15;;;154.50;2124.80;;;;;;5055802;28;20025;-65
2020/12/18 05:51:57;;;;;;;146.88;81.78;;;154.50;2124.80;;;;;;5055474;28;20078;-65
2020/12/18 05:54:29;;;;;;;199.25;108.25;;;154.50;2124.80;;;;;;5055575;28;20033;-65
2020/12/18 05:56:55;;;;;;;370.58;160.80;;;154.50;2150.40;;;;;;5037233;28;20029;-65
2020/12/18 05:59:21;;;;;;;600.45;305.05;;;154.50;2150.40;;;;;;5055671;28;20090;-65
2020/12/18 06:01:51;;;;;;;528.42;284.15;;;154.50;2124.80;;;;;;5055782;28;20045;-64
2020/12/18 06:04:23;;;;;;;428.60;215.80;;;179.20;2124.80;;;;;;5055556;28;20397;-64
2020/12/18 06:06:54;;;;;;;224.55;108.90;;;179.20;2124.80;;;;;;5055450;28;20017;-64
2020/12/18 06:09:27;;;;;;;197.50;98.63;;;179.30;2124.80;;;;;;5055508;28;20071;-64
2020/12/18 06:11:53;;;;;;;152.15;85.88;;;179.30;2124.80;;;;;;5055115;28;20032;-64
2020/12/18 06:14:20;;;;;;;113.22;64.00;;;179.30;2099.20;;;;;;5055367;28;20021;-64
2020/12/18 06:16:55;;;;;;;101.30;55.78;;;179.30;2124.80;;;;;;5055215;28;20033;-64
2020/12/18 06:19:22;;;;;;;87.93;45.97;;;179.30;2124.80;;;;;;5054898;28;20033;-65
2020/12/18 06:21:58;;;;;;;69.28;34.55;;;179.30;2099.20;;;;;;5055159;28;20100;-65
2020/12/18 06:24:27;;;;;;;70.20;34.08;;;179.40;2099.20;;;;;;5053662;28;20049;-65
2020/12/18 06:26:55;;;;;;;70.88;34.08;;;179.30;2099.20;;;;;;5054651;28;20021;-65
2020/12/18 06:29:23;;;;;;;72.30;28.85;;;179.30;2124.80;;;;;;5054770;28;20029;-65
2020/12/18 06:31:48;;;;;;;68.80;26.92;;;179.30;2099.20;;;;;;5054953;28;20025;-65
2020/12/18 06:34:25;;;;;;;70.47;27.65;;;179.30;2124.80;;;;;;5054770;28;20094;-65
2020/12/18 06:36:53;;;;;;;59.97;27.00;;;179.30;2124.80;;;;;;5055023;28;20497;-64
2020/12/18 06:39:24;;;;;;;86.70;48.47;;;179.20;2124.80;;;;;;5054782;28;20067;-65
2020/12/18 06:42:18;;;;;;;79.38;42.67;;;179.20;2124.80;;;;;;5054581;28;20057;-65
2020/12/18 06:44:59;;;;;;;71.65;39.83;;;179.20;2150.40;;;;;;5054808;28;20401;-65
2020/12/18 06:47:25;;;;;;;73.20;34.22;;;179.20;2124.80;;;;;;5054604;28;20474;-64
2020/12/18 06:49:57;;;;;;;74.10;35.03;;;179.20;2124.80;;;;;;5036691;28;20037;-64
2020/12/18 06:52:50;;;;;;;73.88;31.75;;;179.30;2124.80;;;;;;5054613;28;20032;-65
2020/12/18 06:55:33;;;;;;;73.50;29.38;;;179.30;2124.80;;;;;;5054414;28;20481;-64
2020/12/18 06:58:14;;;;;;;84.22;31.73;;;179.40;2099.20;;;;;;5054584;28;20021;-64
2020/12/18 07:00:53;;;;;;;83.65;31.92;;;179.40;2099.20;;;;;;5054134;28;20114;-65
2020/12/18 07:03:38;;;;;;;83.28;32.78;;;179.40;2099.20;;;;;;5054428;28;20045;-64
2020/12/18 07:06:10;;;;;;;81.00;34.17;;;179.50;2099.20;;;;;;5036422;28;20041;-69
2020/12/18 07:08:38;;;;;;;106.30;38.47;;;179.50;2124.80;;;;;;5054191;28;20520;-65
2020/12/18 07:11:07;;;;;;;94.35;35.38;;;179.50;2099.20;;;;;;5054199;28;20056;-65
2020/12/18 07:13:33;;;;;;;103.88;35.25;;;179.30;2124.80;;;;;;5054204;28;20036;-65
2020/12/18 07:16:08;;;;;;;89.40;31.48;;;179.30;2099.20;;;;;;5053823;28;20029;-65
2020/12/18 07:18:43;;;;;;;86.82;32.30;;;179.30;2124.80;;;;;;5054315;28;20044;-65
2020/12/18 07:21:14;;;;;;;86.90;34.35;;;179.30;2124.80;;;;;;5054078;28;20055;-65
2020/12/18 07:23:45;;;;;;;75.70;31.67;;;179.30;2124.80;;;;;;5054226;28;20025;-66
2020/12/18 07:26:12;;;;;;;90.25;36.50;;;179.40;2099.20;;;;;;5054046;28;20025;-65
2020/12/18 07:28:41;;;;;;;91.25;37.47;;;179.40;2099.20;;;;;;5054162;28;20097;-65
2020/12/18 07:31:19;;;;;;;85.82;35.90;;;179.50;2099.20;;;;;;5053824;28;20474;-65
2020/12/18 07:33:59;;;;;;;82.68;35.00;;;179.50;2099.20;;;;;;5053851;28;20033;-65
2020/12/18 07:36:26;;;;;;;98.20;40.13;;;179.50;2099.20;;;;;;5053921;28;20130;-65
2020/12/18 07:38:57;;;;;;;110.03;45.30;;;179.60;2099.20;;;;;;5053768;28;20047;-66
2020/12/18 07:41:29;;;;;;;99.47;45.53;;;179.60;2099.20;;;;;;5053581;28;20045;-65
2020/12/18 07:44:06;;;;;;;103.85;44.50;;;179.60;2073.60;;;;;;5053849;28;20021;-64
2020/12/18 07:46:34;;;;;;;102.45;45.05;;;179.60;2099.20;;;;;;5053723;28;20374;-65
2020/12/18 07:49:10;;;;;;;111.38;46.53;;;179.60;2073.60;;;;;;5054160;28;20017;-66
2020/12/18 07:51:37;;;;;;;117.38;47.17;;;179.60;2073.60;;;;;;5053697;28;20044;-66
2020/12/18 07:54:02;;;;;;;113.72;44.80;;;179.60;2073.60;;;;;;5053542;28;20516;-66
2020/12/18 07:56:28;;;;;;;110.50;46.40;;;179.60;2073.60;;;;;;5053684;28;20029;-64
2020/12/18 07:59:05;;;;;;;108.78;46.45;;;179.60;2073.60;;;;;;5053610;28;20025;-65
2020/12/18 08:01:33;;;;;;;117.68;49.70;;;179.70;2073.60;;;;;;5053371;28;20462;-64
2020/12/18 08:04:04;;;;;;;113.28;50.42;;;179.70;2073.60;;;;;;5053624;28;20021;-65
2020/12/18 08:06:34;;;;;;;104.47;49.38;;;179.70;2073.60;;;;;;5052123;28;20463;-65
2020/12/18 08:09:06;;;;;;;153.98;61.83;;;179.70;2073.60;;;;;;5049608;28;20039;-65
2020/12/18 08:11:34;;;;;;;159.45;66.65;;;179.70;2073.60;;;;;;5052569;28;20028;-65
2020/12/18 08:14:01;;;;;;;157.52;65.65;;;179.70;2073.60;;;;;;5052591;28;20025;-65
2020/12/18 08:16:30;;;;;;;182.32;70.10;;;179.80;2073.60;;;;;;5034160;28;20538;-64
2020/12/18 08:18:58;;;;;;;154.50;59.60;;;179.80;2073.60;;;;;;5034398;28;20494;-65
2020/12/18 08:21:34;;;;;;;126.22;51.85;;;179.80;2073.60;;;;;;5052030;28;20029;-63
2020/12/18 08:24:30;;;;;;;99.97;45.17;;;179.80;2048.00;;;;;;5052508;28;20021;-69
2020/12/18 08:26:58;;;;;;;98.47;44.78;;;179.80;2048.00;;;;;;5065122;28;20020;-70
2020/12/18 08:29:24;;;;;;;111.03;50.35;;;179.80;2048.00;;;;;;5072679;28;20481;-73
2020/12/18 08:31:55;;;;;;;103.88;50.53;;;179.80;2048.00;;;;;;5072437;28;20024;-68
2020/12/18 08:34:33;;;;;;;130.45;56.42;;;179.90;2048.00;;;;;;5072913;28;20021;-69
2020/12/18 08:36:59;;;;;;;149.25;61.55;;;179.90;2022.40;;;;;;5072837;28;20024;-73
2020/12/18 08:39:32;;;;;;;124.30;55.03;;;179.90;2022.40;;;;;;5072248;28;20028;-70
2020/12/18 08:41:58;;;;;;;459.83;228.90;;;179.90;2022.40;;;;;;5072395;28;20102;-68
2020/12/18 08:44:29;;;;;;;185.18;86.50;;;179.90;2022.40;;;;;;5072904;28;20035;-69
2020/12/18 08:46:56;;;;;;;144.98;76.97;;;179.90;2022.40;;;;;;5074714;28;20095;-68
2020/12/18 08:49:27;;;;;;;118.82;63.85;;;179.90;1996.80;;;;;;5076946;28;20457;-67
2020/12/18 08:52:03;;;;;;;131.82;77.50;;;179.90;1996.80;;;;;;5058921;28;20378;-67
2020/12/18 08:54:30;;;;;;;139.85;65.63;;;180.00;2022.40;;;;;;5076412;28;20028;-72
2020/12/18 08:57:17;;;;;;;129.35;56.50;;;179.90;1996.80;;;;;;5076516;28;20073;-67
2020/12/18 09:00:15;;;;;;;72.45;34.50;;;180.00;2022.40;;;;;;5076063;28;20045;-67
2020/12/18 09:02:48;;;;;;;58.60;27.73;;;179.90;1996.80;;;;;;5055870;28;20032;-69
2020/12/18 09:05:18;;;;;;;59.15;30.70;;;179.90;1996.80;;;;;;5056324;28;20079;-68
2020/12/18 09:08:06;;;;;;;58.00;27.30;;;179.90;1996.80;;;;;;5056400;28;20017;-68
2020/12/18 09:10:39;;;;;;;63.75;26.75;;;179.90;1996.80;;;;;;5056055;28;20055;-69
2020/12/18 09:13:09;;;;;;;65.75;31.95;;;179.90;2022.40;;;;;;5056065;28;20029;-69
2020/12/18 09:15:35;;;;;;;164.15;73.05;;;179.90;2022.40;;;;;;5056524;28;20028;-68
2020/12/18 09:18:12;;;;;;;207.82;103.82;;;180.00;1996.80;;;;;;5056198;28;20021;-69
2020/12/18 09:20:41;;;;;;;172.10;97.40;;;180.00;1996.80;;;;;;5056204;28;20375;-70
2020/12/18 09:23:09;;;;;;;469.42;241.13;;;180.00;2022.40;;;;;;5056271;28;20028;-71
2020/12/18 09:25:36;;;;;;;341.02;183.43;;;180.00;1996.80;;;;;;5055834;28;20037;-68
2020/12/18 09:28:03;;;;;;;289.38;155.55;;;180.10;1996.80;;;;;;5082547;28;20031;-70
2020/12/18 09:30:30;;;;;;;194.02;113.28;;;180.10;1996.80;;;;;;5064001;28;20455;-69
2020/12/18 09:33:23;;;;;;;139.80;77.85;;;180.10;1996.80;;;;;;5055792;28;20486;-69
2020/12/18 09:35:50;;;;;;;105.68;62.35;;;180.10;1996.80;;;;;;5053632;28;20021;-69
2020/12/18 09:38:27;;;;;;;103.53;54.13;;;204.80;1996.80;;;;;;5052937;28;20108;-69
2020/12/18 09:40:53;;;;;;;97.63;54.63;;;180.10;1971.20;;;;;;5047176;28;20061;-69
2020/12/18 09:43:19;;;;;;;75.63;42.17;;;180.10;1971.20;;;;;;5034822;28;20029;-68
2020/12/18 09:45:46;;;;;;;94.15;54.75;;;180.10;1971.20;;;;;;5034315;28;20446;-68
2020/12/18 09:48:12;;;;;;;76.38;44.00;;;180.10;1971.20;;;;;;5034900;28;20108;-69
2020/12/18 09:50:38;;;;;;;74.10;39.67;;;204.80;1971.20;;;;;;5034666;28;20164;-68
2020/12/18 09:53:04;;;;;;;76.93;37.67;;;204.80;1945.60;;;;;;5042003;28;20031;-68
2020/12/18 09:55:30;;;;;;;75.22;35.83;;;204.80;1945.60;;;;;;5054568;28;20036;-68
2020/12/18 09:57:56;;;;;;;57.38;29.25;;;204.80;1945.60;;;;;;5045882;28;20065;-68
2020/12/18 10:00:22;;;;;;;52.53;27.65;;;204.80;1945.60;;;;;;5042792;28;20040;-69
2020/12/18 10:02:48;;;;;;;51.85;27.10;;;204.80;1920.00;;;;;;5042779;28;20021;-68
2020/12/18 10:05:14;;;;;;;68.15;32.63;;;180.10;1945.60;;;;;;5043578;28;20029;-69
2020/12/18 10:07:39;;;;;;;68.07;33.03;;;180.10;1945.60;;;;;;5034279;28;20379;-69
2020/12/18 10:10:05;;;;;;;73.97;32.55;;;180.10;1945.60;;;;;;5041138;28;20166;-69
2020/12/18 10:12:31;;;;;;;53.65;27.92;;;180.10;1945.60;;;;;;5042247;28;20034;-69
2020/12/18 10:14:59;;;;;;;49.45;25.98;;;180.10;1920.00;;;;;;5043732;28;20029;-69
2020/12/18 10:17:25;;;;;;;45.85;24.98;;;180.10;1945.60;;;;;;5041486;28;20482;-68
2020/12/18 10:19:52;;;;;;;47.03;25.92;;;180.10;1945.60;;;;;;5041699;28;20060;-69
2020/12/18 10:22:18;;;;;;;53.60;27.33;;;180.10;1945.60;;;;;;5039689;28;20021;-69
2020/12/18 10:24:44;;;;;;;58.95;30.10;;;180.10;1945.60;;;;;;5033916;28;20044;-69
2020/12/18 10:27:11;;;;;;;86.75;49.42;;;180.10;1945.60;;;;;;5034084;28;20470;-69
2020/12/18 10:29:36;;;;;;;113.82;64.57;;;180.00;1945.60;;;;;;5015918;28;20390;-69
2020/12/18 10:32:02;;;;;;;92.18;50.97;;;180.10;1920.00;;;;;;5041041;28;20031;-69
2020/12/18 10:34:28;;;;;;;67.00;37.55;;;180.10;1945.60;;;;;;5045858;28;20042;-68
2020/12/18 10:36:55;;;;;;;62.28;33.78;;;180.10;1945.60;;;;;;5043351;28;20496;-69
2020/12/18 10:39:23;;;;;;;99.40;37.00;;;180.10;1920.00;;;;;;5043543;28;20080;-69
2020/12/18 10:41:50;;;;;;;113.80;44.50;;;204.80;1920.00;;;;;;5057641;28;20049;-69
2020/12/18 10:44:16;;;;;;;90.93;42.53;;;204.80;1920.00;;;;;;5053511;28;20032;-69
2020/12/18 10:46:47;;;;;;;62.35;33.78;;;180.10;1920.00;;;;;;5053314;28;20025;-69
2020/12/18 10:49:13;;;;;;;65.18;35.15;;;180.10;1920.00;;;;;;5053731;28;20099;-69
2020/12/18 10:51:40;;;;;;;59.20;32.38;;;204.80;1920.00;;;;;;5053350;28;20021;-70
2020/12/18 10:54:07;;;;;;;47.85;28.63;;;204.80;1920.00;;;;;;5053639;28;20118;-69
2020/12/18 10:56:33;;;;;;;48.65;28.17;;;204.80;1920.00;;;;;;5053331;28;20025;-69
2020/12/18 10:58:59;;;;;;;46.00;25.13;;;204.80;1920.00;;;;;;5053321;28;20033;-68
2020/12/18 11:01:24;;;;;;;47.33;27.10;;;180.10;1920.00;;;;;;5035080;28;20528;-69
2020/12/18 11:03:50;;;;;;;42.95;25.27;;;180.10;1894.40;;;;;;5053524;28;20033;-69
2020/12/18 11:06:16;;;;;;;51.78;27.50;;;180.10;1920.00;;;;;;5053277;28;20402;-69
2020/12/18 11:08:42;;;;;;;66.43;31.85;;;204.80;1894.40;;;;;;5053033;28;20132;-69
2020/12/18 11:11:14;;;;;;;45.95;25.77;;;204.80;1894.40;;;;;;5053156;28;20029;-69
2020/12/18 11:13:41;;;;;;;62.00;36.72;;;204.80;1894.40;;;;;;5052923;28;20100;-69
2020/12/18 11:16:07;;;;;;;62.25;35.97;;;204.80;1894.40;;;;;;5035269;28;20124;-68
2020/12/18 11:18:34;;;;;;;55.58;28.25;;;204.80;1894.40;;;;;;5052820;28;20035;-69
2020/12/18 11:21:04;;;;;;;75.18;38.65;;;204.80;1894.40;;;;;;5052937;28;20131;-69
2020/12/18 11:23:29;;;;;;;209.43;107.95;;;204.80;1894.40;;;;;;5053019;28;20032;-69
2020/12/18 11:25:55;;;;;;;150.27;80.32;;;204.80;1894.40;;;;;;5053084;28;20029;-69
2020/12/18 11:28:21;;;;;;;63.58;38.45;;;204.80;1894.40;;;;;;5052975;28;20100;-69
2020/12/18 11:30:47;;;;;;;72.78;44.45;;;204.80;1894.40;;;;;;5052801;28;20112;-69
2020/12/18 11:33:12;;;;;;;83.45;49.20;;;180.10;1894.40;;;;;;5053084;28;20041;-69
2020/12/18 11:35:38;;;;;;;49.50;30.80;;;204.80;1894.40;;;;;;5052644;28;20018;-69
2020/12/18 11:38:04;;;;;;;38.97;24.00;;;204.80;1894.40;;;;;;5052709;28;20064;-69
2020/12/18 11:40:30;;;;;;;61.03;30.95;;;204.80;1868.80;;;;;;5052434;28;20138;-69
2020/12/18 11:42:55;;;;;;;89.10;42.90;;;204.80;1868.80;;;;;;5052506;28;20159;-69
2020/12/18 11:45:21;;;;;;;73.72;38.97;;;204.80;1868.80;;;;;;5052946;28;20029;-69
2020/12/18 11:47:47;;;;;;;52.70;29.80;;;204.80;1894.40;;;;;;5034455;28;20430;-69
2020/12/18 11:50:12;;;;;;;47.42;28.60;;;204.80;1894.40;;;;;;5052549;28;20098;-69
2020/12/18 11:52:38;;;;;;;64.32;37.53;;;204.80;1868.80;;;;;;5034414;28;20048;-69
2020/12/18 11:55:04;;;;;;;70.30;39.35;;;204.80;1894.40;;;;;;5052555;28;20044;-69
2020/12/18 11:57:30;;;;;;;66.10;37.60;;;204.80;1894.40;;;;;;5052131;28;20037;-69